sensor_id;sensor_type;location;lat;lon;timestamp;P1;durP1;ratioP1;P2;durP2;ratioP2
28523;SDS011;15734;50.904;6.922;2022-10-16T00:00:30;7.07;;;2.35;;
28523;SDS011;15734;50.904;6.922;2022-10-16T00:02:56;3.42;;;2.60;;
28523;SDS011;15734;50.904;6.922;2022-10-16T00:05:22;2.35;;;2.08;;
28523;SDS011;15734;50.904;6.922;2022-10-16T00:07:47;7.57;;;3.08;;
28523;SDS011;15734;50.904;6.922;2022-10-16T00:10:13;3.92;;;2.30;;
28523;SDS011;15734;50.904;6.922;2022-10-16T00:12:38;3.83;;;2.42;;
28523;SDS011;15734;50.904;6.922;2022-10-16T00:15:04;11.57;;;2.65;;
28523;SDS011;15734;50.904;6.922;2022-10-16T00:17:31;16.48;;;3.13;;
28523;SDS011;15734;50.904;6.922;2022-10-16T00:19:56;9.52;;;2.17;;
28523;SDS011;15734;50.904;6.922;2022-10-16T00:22:22;5.25;;;2.55;;
28523;SDS011;15734;50.904;6.922;2022-10-16T00:24:48;8.40;;;2.33;;
28523;SDS011;15734;50.904;6.922;2022-10-16T00:27:14;7.63;;;2.55;;
28523;SDS011;15734;50.904;6.922;2022-10-16T00:29:40;6.32;;;2.45;;
28523;SDS011;15734;50.904;6.922;2022-10-16T00:32:05;5.97;;;2.63;;
28523;SDS011;15734;50.904;6.922;2022-10-16T00:34:31;6.97;;;2.60;;
28523;SDS011;15734;50.904;6.922;2022-10-16T00:36:56;6.18;;;2.05;;
28523;SDS011;15734;50.904;6.922;2022-10-16T00:39:22;6.18;;;1.88;;
28523;SDS011;15734;50.904;6.922;2022-10-16T00:41:48;7.07;;;2.35;;
28523;SDS011;15734;50.904;6.922;2022-10-16T00:47:27;11.48;;;2.58;;
28523;SDS011;15734;50.904;6.922;2022-10-16T00:50:07;3.47;;;1.92;;
28523;SDS011;15734;50.904;6.922;2022-10-16T00:52:39;3.90;;;1.60;;
28523;SDS011;15734;50.904;6.922;2022-10-16T00:55:09;2.78;;;1.65;;
28523;SDS011;15734;50.904;6.922;2022-10-16T00:57:35;2.80;;;1.52;;
28523;SDS011;15734;50.904;6.922;2022-10-16T01:00:02;3.92;;;1.85;;
28523;SDS011;15734;50.904;6.922;2022-10-16T01:02:30;11.13;;;2.17;;
28523;SDS011;15734;50.904;6.922;2022-10-16T01:04:55;6.85;;;1.60;;
28523;SDS011;15734;50.904;6.922;2022-10-16T01:10:35;5.45;;;1.42;;
28523;SDS011;15734;50.904;6.922;2022-10-16T01:13:12;3.78;;;1.75;;
28523;SDS011;15734;50.904;6.922;2022-10-16T01:15:56;6.35;;;1.80;;
28523;SDS011;15734;50.904;6.922;2022-10-16T01:18:30;3.28;;;1.60;;
28523;SDS011;15734;50.904;6.922;2022-10-16T01:21:01;6.85;;;1.48;;
28523;SDS011;15734;50.904;6.922;2022-10-16T01:29:36;4.55;;;1.35;;
28523;SDS011;15734;50.904;6.922;2022-10-16T01:31:58;3.75;;;1.92;;
28523;SDS011;15734;50.904;6.922;2022-10-16T01:34:33;8.32;;;1.80;;
28523;SDS011;15734;50.904;6.922;2022-10-16T01:37:11;5.72;;;1.58;;
28523;SDS011;15734;50.904;6.922;2022-10-16T01:39:40;12.68;;;2.15;;
28523;SDS011;15734;50.904;6.922;2022-10-16T01:42:17;14.50;;;2.25;;
28523;SDS011;15734;50.904;6.922;2022-10-16T01:44:47;2.58;;;1.58;;
28523;SDS011;15734;50.904;6.922;2022-10-16T01:47:15;5.88;;;1.83;;
28523;SDS011;15734;50.904;6.922;2022-10-16T01:49:43;2.28;;;1.83;;
28523;SDS011;15734;50.904;6.922;2022-10-16T01:52:12;5.85;;;1.90;;
28523;SDS011;15734;50.904;6.922;2022-10-16T01:54:42;5.45;;;1.77;;
28523;SDS011;15734;50.904;6.922;2022-10-16T01:57:10;12.23;;;1.75;;
28523;SDS011;15734;50.904;6.922;2022-10-16T01:59:41;22.70;;;2.25;;
28523;SDS011;15734;50.904;6.922;2022-10-16T02:02:09;9.63;;;2.10;;
28523;SDS011;15734;50.904;6.922;2022-10-16T02:04:38;2.28;;;1.88;;
28523;SDS011;15734;50.904;6.922;2022-10-16T02:07:07;5.03;;;2.08;;
28523;SDS011;15734;50.904;6.922;2022-10-16T02:09:33;5.13;;;1.80;;
28523;SDS011;15734;50.904;6.922;2022-10-16T02:12:01;5.88;;;2.13;;
28523;SDS011;15734;50.904;6.922;2022-10-16T02:14:33;4.85;;;2.20;;
28523;SDS011;15734;50.904;6.922;2022-10-16T02:16:58;3.17;;;1.92;;
28523;SDS011;15734;50.904;6.922;2022-10-16T02:19:24;5.13;;;1.73;;
28523;SDS011;15734;50.904;6.922;2022-10-16T02:21:51;3.05;;;1.85;;
28523;SDS011;15734;50.904;6.922;2022-10-16T02:24:26;5.63;;;1.63;;
28523;SDS011;15734;50.904;6.922;2022-10-16T02:27:38;5.10;;;2.25;;
28523;SDS011;15734;50.904;6.922;2022-10-16T02:29:49;5.55;;;1.77;;
28523;SDS011;15734;50.904;6.922;2022-10-16T02:32:19;9.98;;;2.42;;
28523;SDS011;15734;50.904;6.922;2022-10-16T02:34:48;1.70;;;1.52;;
28523;SDS011;15734;50.904;6.922;2022-10-16T02:37:14;16.25;;;2.03;;
28523;SDS011;15734;50.904;6.922;2022-10-16T02:39:42;4.47;;;1.45;;
28523;SDS011;15734;50.904;6.922;2022-10-16T02:42:11;3.67;;;1.63;;
28523;SDS011;15734;50.904;6.922;2022-10-16T02:44:37;5.05;;;1.63;;
28523;SDS011;15734;50.904;6.922;2022-10-16T02:47:03;7.88;;;1.70;;
28523;SDS011;15734;50.904;6.922;2022-10-16T02:49:29;3.28;;;1.75;;
28523;SDS011;15734;50.904;6.922;2022-10-16T02:51:54;2.67;;;1.70;;
28523;SDS011;15734;50.904;6.922;2022-10-16T02:54:20;3.25;;;1.90;;
28523;SDS011;15734;50.904;6.922;2022-10-16T02:56:45;3.30;;;1.55;;
28523;SDS011;15734;50.904;6.922;2022-10-16T02:59:11;5.72;;;1.90;;
28523;SDS011;15734;50.904;6.922;2022-10-16T03:01:36;3.38;;;2.10;;
28523;SDS011;15734;50.904;6.922;2022-10-16T03:04:02;6.50;;;1.90;;
28523;SDS011;15734;50.904;6.922;2022-10-16T03:06:27;4.30;;;2.13;;
28523;SDS011;15734;50.904;6.922;2022-10-16T03:08:53;4.18;;;1.50;;
28523;SDS011;15734;50.904;6.922;2022-10-16T03:11:18;8.18;;;1.85;;
28523;SDS011;15734;50.904;6.922;2022-10-16T03:13:44;3.08;;;1.80;;
28523;SDS011;15734;50.904;6.922;2022-10-16T03:16:09;9.55;;;1.60;;
28523;SDS011;15734;50.904;6.922;2022-10-16T03:18:35;7.55;;;1.58;;
28523;SDS011;15734;50.904;6.922;2022-10-16T03:21:00;2.38;;;1.48;;
28523;SDS011;15734;50.904;6.922;2022-10-16T03:23:26;4.20;;;1.83;;
28523;SDS011;15734;50.904;6.922;2022-10-16T03:25:52;2.70;;;1.48;;
28523;SDS011;15734;50.904;6.922;2022-10-16T03:28:18;6.95;;;2.08;;
28523;SDS011;15734;50.904;6.922;2022-10-16T03:30:44;8.88;;;1.42;;
28523;SDS011;15734;50.904;6.922;2022-10-16T03:33:09;8.35;;;1.67;;
28523;SDS011;15734;50.904;6.922;2022-10-16T03:35:35;4.85;;;1.77;;
28523;SDS011;15734;50.904;6.922;2022-10-16T03:38:00;7.20;;;1.63;;
28523;SDS011;15734;50.904;6.922;2022-10-16T03:40:26;9.68;;;1.50;;
28523;SDS011;15734;50.904;6.922;2022-10-16T03:42:52;5.93;;;1.65;;
28523;SDS011;15734;50.904;6.922;2022-10-16T03:45:20;17.85;;;1.92;;
28523;SDS011;15734;50.904;6.922;2022-10-16T03:47:46;13.13;;;1.50;;
28523;SDS011;15734;50.904;6.922;2022-10-16T03:50:12;3.72;;;1.80;;
28523;SDS011;15734;50.904;6.922;2022-10-16T03:52:37;9.70;;;1.40;;
28523;SDS011;15734;50.904;6.922;2022-10-16T03:55:03;13.30;;;1.40;;
28523;SDS011;15734;50.904;6.922;2022-10-16T03:57:29;3.60;;;1.30;;
28523;SDS011;15734;50.904;6.922;2022-10-16T03:59:54;5.00;;;1.42;;
28523;SDS011;15734;50.904;6.922;2022-10-16T04:02:20;6.15;;;1.30;;
28523;SDS011;15734;50.904;6.922;2022-10-16T04:04:45;4.63;;;1.33;;
28523;SDS011;15734;50.904;6.922;2022-10-16T04:07:11;12.52;;;1.83;;
28523;SDS011;15734;50.904;6.922;2022-10-16T04:09:36;3.55;;;1.25;;
28523;SDS011;15734;50.904;6.922;2022-10-16T04:12:02;2.90;;;1.52;;
28523;SDS011;15734;50.904;6.922;2022-10-16T04:14:28;6.13;;;1.70;;
28523;SDS011;15734;50.904;6.922;2022-10-16T04:16:53;5.95;;;1.27;;
28523;SDS011;15734;50.904;6.922;2022-10-16T04:19:19;7.47;;;1.23;;
28523;SDS011;15734;50.904;6.922;2022-10-16T04:21:44;7.95;;;1.35;;
28523;SDS011;15734;50.904;6.922;2022-10-16T04:24:10;2.97;;;1.50;;
28523;SDS011;15734;50.904;6.922;2022-10-16T04:26:36;2.75;;;1.30;;
28523;SDS011;15734;50.904;6.922;2022-10-16T04:29:02;4.20;;;1.27;;
28523;SDS011;15734;50.904;6.922;2022-10-16T04:31:27;6.22;;;1.20;;
28523;SDS011;15734;50.904;6.922;2022-10-16T04:33:53;5.63;;;1.23;;
28523;SDS011;15734;50.904;6.922;2022-10-16T04:36:18;4.30;;;1.10;;
28523;SDS011;15734;50.904;6.922;2022-10-16T04:38:44;5.32;;;1.20;;
28523;SDS011;15734;50.904;6.922;2022-10-16T04:41:09;2.88;;;1.65;;
28523;SDS011;15734;50.904;6.922;2022-10-16T04:43:35;1.33;;;1.20;;
28523;SDS011;15734;50.904;6.922;2022-10-16T04:46:00;1.33;;;1.10;;
28523;SDS011;15734;50.904;6.922;2022-10-16T04:48:26;2.25;;;1.20;;
28523;SDS011;15734;50.904;6.922;2022-10-16T04:50:52;3.13;;;1.27;;
28523;SDS011;15734;50.904;6.922;2022-10-16T04:53:17;2.22;;;1.10;;
28523;SDS011;15734;50.904;6.922;2022-10-16T04:55:43;8.60;;;1.20;;
28523;SDS011;15734;50.904;6.922;2022-10-16T04:58:08;3.25;;;0.90;;
28523;SDS011;15734;50.904;6.922;2022-10-16T05:00:34;3.90;;;1.10;;
28523;SDS011;15734;50.904;6.922;2022-10-16T05:03:00;4.97;;;1.23;;
28523;SDS011;15734;50.904;6.922;2022-10-16T05:05:26;4.55;;;1.20;;
28523;SDS011;15734;50.904;6.922;2022-10-16T05:07:52;4.15;;;1.10;;
28523;SDS011;15734;50.904;6.922;2022-10-16T05:10:18;3.63;;;1.30;;
28523;SDS011;15734;50.904;6.922;2022-10-16T05:12:45;6.82;;;1.40;;
28523;SDS011;15734;50.904;6.922;2022-10-16T05:15:11;8.63;;;1.52;;
28523;SDS011;15734;50.904;6.922;2022-10-16T05:17:37;2.15;;;1.00;;
28523;SDS011;15734;50.904;6.922;2022-10-16T05:20:03;3.67;;;1.05;;
28523;SDS011;15734;50.904;6.922;2022-10-16T05:22:29;1.13;;;1.05;;
28523;SDS011;15734;50.904;6.922;2022-10-16T05:24:54;4.13;;;1.20;;
28523;SDS011;15734;50.904;6.922;2022-10-16T05:27:20;2.38;;;1.60;;
28523;SDS011;15734;50.904;6.922;2022-10-16T05:29:46;1.00;;;1.00;;
28523;SDS011;15734;50.904;6.922;2022-10-16T05:32:13;3.13;;;1.05;;
28523;SDS011;15734;50.904;6.922;2022-10-16T05:34:40;8.43;;;1.30;;
28523;SDS011;15734;50.904;6.922;2022-10-16T05:37:05;6.90;;;1.65;;
28523;SDS011;15734;50.904;6.922;2022-10-16T05:39:31;5.10;;;1.20;;
28523;SDS011;15734;50.904;6.922;2022-10-16T05:41:57;6.78;;;1.63;;
28523;SDS011;15734;50.904;6.922;2022-10-16T05:44:23;2.15;;;1.27;;
28523;SDS011;15734;50.904;6.922;2022-10-16T05:46:48;2.90;;;1.23;;
28523;SDS011;15734;50.904;6.922;2022-10-16T05:49:14;12.23;;;1.40;;
28523;SDS011;15734;50.904;6.922;2022-10-16T05:51:40;2.45;;;1.13;;
28523;SDS011;15734;50.904;6.922;2022-10-16T05:54:06;4.50;;;1.30;;
28523;SDS011;15734;50.904;6.922;2022-10-16T05:56:32;3.25;;;1.30;;
28523;SDS011;15734;50.904;6.922;2022-10-16T05:58:57;3.38;;;1.48;;
28523;SDS011;15734;50.904;6.922;2022-10-16T06:01:23;10.20;;;1.42;;
28523;SDS011;15734;50.904;6.922;2022-10-16T06:03:49;6.07;;;1.30;;
28523;SDS011;15734;50.904;6.922;2022-10-16T06:06:17;1.52;;;1.20;;
28523;SDS011;15734;50.904;6.922;2022-10-16T06:08:45;1.75;;;1.15;;
28523;SDS011;15734;50.904;6.922;2022-10-16T06:11:13;1.85;;;1.35;;
28523;SDS011;15734;50.904;6.922;2022-10-16T06:13:43;1.55;;;1.35;;
28523;SDS011;15734;50.904;6.922;2022-10-16T06:16:11;2.28;;;1.20;;
28523;SDS011;15734;50.904;6.922;2022-10-16T06:18:37;1.75;;;1.50;;
28523;SDS011;15734;50.904;6.922;2022-10-16T06:21:10;3.03;;;1.77;;
28523;SDS011;15734;50.904;6.922;2022-10-16T06:23:39;1.67;;;1.45;;
28523;SDS011;15734;50.904;6.922;2022-10-16T06:26:05;6.15;;;1.60;;
28523;SDS011;15734;50.904;6.922;2022-10-16T06:28:31;2.05;;;1.50;;
28523;SDS011;15734;50.904;6.922;2022-10-16T06:31:01;4.28;;;1.52;;
28523;SDS011;15734;50.904;6.922;2022-10-16T06:33:27;3.70;;;1.52;;
28523;SDS011;15734;50.904;6.922;2022-10-16T06:35:53;7.45;;;2.00;;
28523;SDS011;15734;50.904;6.922;2022-10-16T06:38:18;5.07;;;1.60;;
28523;SDS011;15734;50.904;6.922;2022-10-16T06:40:44;6.07;;;1.65;;
28523;SDS011;15734;50.904;6.922;2022-10-16T06:43:09;9.90;;;1.60;;
28523;SDS011;15734;50.904;6.922;2022-10-16T06:45:35;3.85;;;1.20;;
28523;SDS011;15734;50.904;6.922;2022-10-16T06:48:00;5.22;;;1.42;;
28523;SDS011;15734;50.904;6.922;2022-10-16T06:50:26;1.60;;;1.45;;
28523;SDS011;15734;50.904;6.922;2022-10-16T06:52:51;3.50;;;1.42;;
28523;SDS011;15734;50.904;6.922;2022-10-16T06:55:17;5.30;;;1.67;;
28523;SDS011;15734;50.904;6.922;2022-10-16T06:57:43;7.50;;;2.15;;
28523;SDS011;15734;50.904;6.922;2022-10-16T07:00:09;4.30;;;1.70;;
28523;SDS011;15734;50.904;6.922;2022-10-16T07:02:34;8.57;;;2.00;;
28523;SDS011;15734;50.904;6.922;2022-10-16T07:05:00;5.93;;;2.33;;
28523;SDS011;15734;50.904;6.922;2022-10-16T07:07:26;7.93;;;2.10;;
28523;SDS011;15734;50.904;6.922;2022-10-16T07:09:51;4.63;;;1.75;;
28523;SDS011;15734;50.904;6.922;2022-10-16T07:12:17;6.00;;;2.63;;
28523;SDS011;15734;50.904;6.922;2022-10-16T07:14:43;5.38;;;1.92;;
28523;SDS011;15734;50.904;6.922;2022-10-16T07:17:08;4.18;;;1.70;;
28523;SDS011;15734;50.904;6.922;2022-10-16T07:19:34;4.88;;;3.28;;
28523;SDS011;15734;50.904;6.922;2022-10-16T07:21:59;2.03;;;1.60;;
28523;SDS011;15734;50.904;6.922;2022-10-16T07:24:25;5.78;;;1.80;;
28523;SDS011;15734;50.904;6.922;2022-10-16T07:26:51;3.08;;;2.10;;
28523;SDS011;15734;50.904;6.922;2022-10-16T07:29:20;2.92;;;1.65;;
28523;SDS011;15734;50.904;6.922;2022-10-16T07:31:47;2.03;;;1.85;;
28523;SDS011;15734;50.904;6.922;2022-10-16T07:34:14;2.75;;;1.85;;
28523;SDS011;15734;50.904;6.922;2022-10-16T07:36:40;1.77;;;1.50;;
28523;SDS011;15734;50.904;6.922;2022-10-16T07:39:06;2.72;;;1.85;;
28523;SDS011;15734;50.904;6.922;2022-10-16T07:41:31;5.72;;;1.88;;
28523;SDS011;15734;50.904;6.922;2022-10-16T07:43:58;4.68;;;2.13;;
28523;SDS011;15734;50.904;6.922;2022-10-16T07:46:27;2.38;;;1.92;;
28523;SDS011;15734;50.904;6.922;2022-10-16T07:48:52;6.00;;;1.98;;
28523;SDS011;15734;50.904;6.922;2022-10-16T07:51:19;3.90;;;1.83;;
28523;SDS011;15734;50.904;6.922;2022-10-16T07:53:46;3.33;;;1.98;;
28523;SDS011;15734;50.904;6.922;2022-10-16T07:56:12;4.68;;;1.80;;
28523;SDS011;15734;50.904;6.922;2022-10-16T07:58:39;5.25;;;1.60;;
28523;SDS011;15734;50.904;6.922;2022-10-16T08:01:05;2.83;;;1.40;;
28523;SDS011;15734;50.904;6.922;2022-10-16T08:03:32;4.70;;;1.60;;
28523;SDS011;15734;50.904;6.922;2022-10-16T08:05:58;2.15;;;1.40;;
28523;SDS011;15734;50.904;6.922;2022-10-16T08:08:24;4.32;;;1.73;;
28523;SDS011;15734;50.904;6.922;2022-10-16T08:10:51;4.20;;;1.95;;
28523;SDS011;15734;50.904;6.922;2022-10-16T08:13:17;5.03;;;1.50;;
28523;SDS011;15734;50.904;6.922;2022-10-16T08:15:43;2.58;;;1.25;;
28523;SDS011;15734;50.904;6.922;2022-10-16T08:18:09;3.80;;;1.67;;
28523;SDS011;15734;50.904;6.922;2022-10-16T08:20:36;2.40;;;1.30;;
28523;SDS011;15734;50.904;6.922;2022-10-16T08:23:02;2.22;;;1.50;;
28523;SDS011;15734;50.904;6.922;2022-10-16T08:25:28;1.58;;;1.33;;
28523;SDS011;15734;50.904;6.922;2022-10-16T08:27:54;1.85;;;1.10;;
28523;SDS011;15734;50.904;6.922;2022-10-16T08:30:20;3.35;;;1.10;;
28523;SDS011;15734;50.904;6.922;2022-10-16T08:32:47;2.85;;;1.58;;
28523;SDS011;15734;50.904;6.922;2022-10-16T08:35:12;8.48;;;1.27;;
28523;SDS011;15734;50.904;6.922;2022-10-16T08:37:39;4.70;;;1.20;;
28523;SDS011;15734;50.904;6.922;2022-10-16T08:40:06;6.90;;;1.63;;
28523;SDS011;15734;50.904;6.922;2022-10-16T08:42:46;1.08;;;0.98;;
28523;SDS011;15734;50.904;6.922;2022-10-16T08:48:17;1.30;;;0.90;;
28523;SDS011;15734;50.904;6.922;2022-10-16T08:50:48;1.92;;;0.70;;
28523;SDS011;15734;50.904;6.922;2022-10-16T08:53:18;1.23;;;1.00;;
28523;SDS011;15734;50.904;6.922;2022-10-16T08:55:49;7.30;;;0.95;;
28523;SDS011;15734;50.904;6.922;2022-10-16T08:58:17;1.95;;;0.73;;
28523;SDS011;15734;50.904;6.922;2022-10-16T09:00:48;2.38;;;0.60;;
28523;SDS011;15734;50.904;6.922;2022-10-16T09:03:24;1.73;;;0.88;;
28523;SDS011;15734;50.904;6.922;2022-10-16T09:08:28;6.15;;;0.85;;
28523;SDS011;15734;50.904;6.922;2022-10-16T09:11:10;8.07;;;0.98;;
28523;SDS011;15734;50.904;6.922;2022-10-16T09:13:59;1.55;;;1.00;;
28523;SDS011;15734;50.904;6.922;2022-10-16T09:16:56;1.17;;;0.73;;
28523;SDS011;15734;50.904;6.922;2022-10-16T09:19:32;2.45;;;0.75;;
28523;SDS011;15734;50.904;6.922;2022-10-16T09:22:09;3.17;;;1.10;;
28523;SDS011;15734;50.904;6.922;2022-10-16T09:24:39;0.68;;;0.50;;
28523;SDS011;15734;50.904;6.922;2022-10-16T09:27:04;4.57;;;0.50;;
28523;SDS011;15734;50.904;6.922;2022-10-16T09:29:32;4.72;;;0.70;;
28523;SDS011;15734;50.904;6.922;2022-10-16T09:31:57;2.28;;;0.70;;
28523;SDS011;15734;50.904;6.922;2022-10-16T09:34:37;1.60;;;0.55;;
28523;SDS011;15734;50.904;6.922;2022-10-16T09:37:12;0.30;;;0.30;;
28523;SDS011;15734;50.904;6.922;2022-10-16T09:39:49;1.60;;;0.60;;
28523;SDS011;15734;50.904;6.922;2022-10-16T09:44:46;4.25;;;0.50;;
28523;SDS011;15734;50.904;6.922;2022-10-16T09:49:52;1.42;;;0.52;;
28523;SDS011;15734;50.904;6.922;2022-10-16T09:52:20;6.10;;;0.63;;
28523;SDS011;15734;50.904;6.922;2022-10-16T09:54:56;4.50;;;0.73;;
28523;SDS011;15734;50.904;6.922;2022-10-16T09:57:23;1.05;;;0.55;;
28523;SDS011;15734;50.904;6.922;2022-10-16T09:59:53;2.28;;;0.50;;
28523;SDS011;15734;50.904;6.922;2022-10-16T10:02:23;2.15;;;0.63;;
28523;SDS011;15734;50.904;6.922;2022-10-16T10:04:53;4.10;;;0.30;;
28523;SDS011;15734;50.904;6.922;2022-10-16T10:07:30;0.52;;;0.40;;
28523;SDS011;15734;50.904;6.922;2022-10-16T10:09:59;1.13;;;0.40;;
28523;SDS011;15734;50.904;6.922;2022-10-16T10:12:29;1.90;;;0.40;;
28523;SDS011;15734;50.904;6.922;2022-10-16T10:14:58;2.30;;;0.40;;
28523;SDS011;15734;50.904;6.922;2022-10-16T10:17:30;4.43;;;0.52;;
28523;SDS011;15734;50.904;6.922;2022-10-16T10:20:00;1.27;;;0.40;;
28523;SDS011;15734;50.904;6.922;2022-10-16T10:22:44;0.77;;;0.30;;
28523;SDS011;15734;50.904;6.922;2022-10-16T10:30:15;1.80;;;0.40;;
28523;SDS011;15734;50.904;6.922;2022-10-16T10:38:51;2.55;;;0.75;;
28523;SDS011;15734;50.904;6.922;2022-10-16T10:41:26;1.75;;;0.40;;
28523;SDS011;15734;50.904;6.922;2022-10-16T10:44:16;2.33;;;0.40;;
28523;SDS011;15734;50.904;6.922;2022-10-16T10:47:10;1.35;;;0.30;;
28523;SDS011;15734;50.904;6.922;2022-10-16T10:53:13;1.23;;;0.35;;
28523;SDS011;15734;50.904;6.922;2022-10-16T10:56:10;4.13;;;1.02;;
28523;SDS011;15734;50.904;6.922;2022-10-16T10:59:02;2.35;;;0.47;;
28523;SDS011;15734;50.904;6.922;2022-10-16T11:01:48;2.63;;;0.55;;
28523;SDS011;15734;50.904;6.922;2022-10-16T11:07:27;0.45;;;0.35;;
28523;SDS011;15734;50.904;6.922;2022-10-16T11:09:58;2.47;;;0.43;;
28523;SDS011;15734;50.904;6.922;2022-10-16T11:12:55;0.70;;;0.30;;
28523;SDS011;15734;50.904;6.922;2022-10-16T11:15:36;2.05;;;0.40;;
28523;SDS011;15734;50.904;6.922;2022-10-16T11:20:44;0.40;;;0.40;;
28523;SDS011;15734;50.904;6.922;2022-10-16T11:23:25;1.08;;;0.40;;
28523;SDS011;15734;50.904;6.922;2022-10-16T11:26:11;1.23;;;0.50;;
28523;SDS011;15734;50.904;6.922;2022-10-16T11:28:44;1.80;;;0.40;;
28523;SDS011;15734;50.904;6.922;2022-10-16T11:31:16;2.05;;;0.25;;
28523;SDS011;15734;50.904;6.922;2022-10-16T11:33:49;3.50;;;0.60;;
28523;SDS011;15734;50.904;6.922;2022-10-16T11:41:41;0.80;;;0.43;;
28523;SDS011;15734;50.904;6.922;2022-10-16T11:47:35;2.40;;;0.40;;
28523;SDS011;15734;50.904;6.922;2022-10-16T11:50:23;3.63;;;1.20;;
28523;SDS011;15734;50.904;6.922;2022-10-16T11:55:27;1.75;;;0.40;;
28523;SDS011;15734;50.904;6.922;2022-10-16T11:57:59;0.20;;;0.20;;
28523;SDS011;15734;50.904;6.922;2022-10-16T12:01:06;1.80;;;0.47;;
28523;SDS011;15734;50.904;6.922;2022-10-16T12:03:48;1.25;;;0.43;;
28523;SDS011;15734;50.904;6.922;2022-10-16T12:09:20;1.90;;;0.43;;
28523;SDS011;15734;50.904;6.922;2022-10-16T12:11:49;1.63;;;0.50;;
28523;SDS011;15734;50.904;6.922;2022-10-16T12:19:24;5.43;;;0.82;;
28523;SDS011;15734;50.904;6.922;2022-10-16T12:21:52;0.28;;;0.28;;
28523;SDS011;15734;50.904;6.922;2022-10-16T12:24:21;0.88;;;0.30;;
28523;SDS011;15734;50.904;6.922;2022-10-16T12:27:27;0.55;;;0.20;;
28523;SDS011;15734;50.904;6.922;2022-10-16T12:29:57;1.73;;;0.43;;
28523;SDS011;15734;50.904;6.922;2022-10-16T12:32:29;2.58;;;0.40;;
28523;SDS011;15734;50.904;6.922;2022-10-16T12:34:57;2.15;;;0.50;;
28523;SDS011;15734;50.904;6.922;2022-10-16T12:37:25;1.00;;;0.30;;
28523;SDS011;15734;50.904;6.922;2022-10-16T12:39:53;2.10;;;0.50;;
28523;SDS011;15734;50.904;6.922;2022-10-16T12:44:53;2.50;;;0.40;;
28523;SDS011;15734;50.904;6.922;2022-10-16T12:47:20;3.47;;;0.50;;
28523;SDS011;15734;50.904;6.922;2022-10-16T12:50:00;4.55;;;0.50;;
28523;SDS011;15734;50.904;6.922;2022-10-16T12:52:35;2.17;;;0.40;;
28523;SDS011;15734;50.904;6.922;2022-10-16T12:55:03;2.92;;;0.25;;
28523;SDS011;15734;50.904;6.922;2022-10-16T12:57:47;1.13;;;0.30;;
28523;SDS011;15734;50.904;6.922;2022-10-16T13:05:44;0.47;;;0.32;;
28523;SDS011;15734;50.904;6.922;2022-10-16T13:14:22;0.30;;;0.20;;
28523;SDS011;15734;50.904;6.922;2022-10-16T13:17:01;9.70;;;0.73;;
28523;SDS011;15734;50.904;6.922;2022-10-16T13:22:22;2.08;;;0.40;;
28523;SDS011;15734;50.904;6.922;2022-10-16T13:25:02;0.70;;;0.20;;
28523;SDS011;15734;50.904;6.922;2022-10-16T13:27:46;2.60;;;0.30;;
28523;SDS011;15734;50.904;6.922;2022-10-16T13:30:20;2.67;;;0.30;;
28523;SDS011;15734;50.904;6.922;2022-10-16T13:35:57;7.45;;;0.50;;
28523;SDS011;15734;50.904;6.922;2022-10-16T13:38:24;0.20;;;0.20;;
28523;SDS011;15734;50.904;6.922;2022-10-16T13:43:35;0.30;;;0.30;;
28523;SDS011;15734;50.904;6.922;2022-10-16T13:46:10;0.90;;;0.40;;
28523;SDS011;15734;50.904;6.922;2022-10-16T13:48:59;0.40;;;0.40;;
28523;SDS011;15734;50.904;6.922;2022-10-16T13:51:26;2.67;;;0.30;;
28523;SDS011;15734;50.904;6.922;2022-10-16T13:53:53;0.95;;;0.30;;
28523;SDS011;15734;50.904;6.922;2022-10-16T13:56:21;0.82;;;0.30;;
28523;SDS011;15734;50.904;6.922;2022-10-16T13:58:59;0.85;;;0.40;;
28523;SDS011;15734;50.904;6.922;2022-10-16T14:01:28;4.40;;;0.30;;
28523;SDS011;15734;50.904;6.922;2022-10-16T14:04:04;3.63;;;0.40;;
28523;SDS011;15734;50.904;6.922;2022-10-16T14:06:32;2.67;;;0.60;;
28523;SDS011;15734;50.904;6.922;2022-10-16T14:09:12;2.53;;;0.50;;
28523;SDS011;15734;50.904;6.922;2022-10-16T14:11:44;0.75;;;0.35;;
28523;SDS011;15734;50.904;6.922;2022-10-16T14:14:14;2.05;;;0.35;;
28523;SDS011;15734;50.904;6.922;2022-10-16T14:16:40;0.60;;;0.35;;
28523;SDS011;15734;50.904;6.922;2022-10-16T14:19:13;1.23;;;0.25;;
28523;SDS011;15734;50.904;6.922;2022-10-16T14:21:46;2.33;;;0.60;;
28523;SDS011;15734;50.904;6.922;2022-10-16T14:24:13;2.80;;;0.88;;
28523;SDS011;15734;50.904;6.922;2022-10-16T14:26:47;1.40;;;0.50;;
28523;SDS011;15734;50.904;6.922;2022-10-16T14:29:14;0.50;;;0.32;;
28523;SDS011;15734;50.904;6.922;2022-10-16T14:31:42;0.75;;;0.35;;
28523;SDS011;15734;50.904;6.922;2022-10-16T14:34:22;0.90;;;0.40;;
28523;SDS011;15734;50.904;6.922;2022-10-16T14:36:49;2.13;;;0.47;;
28523;SDS011;15734;50.904;6.922;2022-10-16T14:39:19;2.35;;;1.02;;
28523;SDS011;15734;50.904;6.922;2022-10-16T14:41:50;1.90;;;0.57;;
28523;SDS011;15734;50.904;6.922;2022-10-16T14:44:26;0.55;;;0.40;;
28523;SDS011;15734;50.904;6.922;2022-10-16T14:46:54;1.02;;;0.35;;
28523;SDS011;15734;50.904;6.922;2022-10-16T14:49:20;4.70;;;0.57;;
28523;SDS011;15734;50.904;6.922;2022-10-16T14:51:48;5.07;;;0.60;;
28523;SDS011;15734;50.904;6.922;2022-10-16T14:54:14;2.20;;;0.75;;
28523;SDS011;15734;50.904;6.922;2022-10-16T14:56:54;2.45;;;1.10;;
28523;SDS011;15734;50.904;6.922;2022-10-16T14:59:24;6.57;;;1.25;;
28523;SDS011;15734;50.904;6.922;2022-10-16T15:01:54;1.50;;;0.93;;
28523;SDS011;15734;50.904;6.922;2022-10-16T15:04:20;1.70;;;0.80;;
28523;SDS011;15734;50.904;6.922;2022-10-16T15:06:46;1.45;;;0.60;;
28523;SDS011;15734;50.904;6.922;2022-10-16T15:09:11;1.17;;;0.35;;
28523;SDS011;15734;50.904;6.922;2022-10-16T15:11:37;0.95;;;0.57;;
28523;SDS011;15734;50.904;6.922;2022-10-16T15:14:03;4.50;;;0.57;;
28523;SDS011;15734;50.904;6.922;2022-10-16T15:16:29;1.35;;;0.30;;
28523;SDS011;15734;50.904;6.922;2022-10-16T15:18:55;2.13;;;0.68;;
28523;SDS011;15734;50.904;6.922;2022-10-16T15:21:23;2.58;;;0.50;;
28523;SDS011;15734;50.904;6.922;2022-10-16T15:23:52;7.13;;;0.47;;
28523;SDS011;15734;50.904;6.922;2022-10-16T15:26:17;4.50;;;0.50;;
28523;SDS011;15734;50.904;6.922;2022-10-16T15:28:43;1.30;;;0.30;;
28523;SDS011;15734;50.904;6.922;2022-10-16T15:31:09;0.80;;;0.45;;
28523;SDS011;15734;50.904;6.922;2022-10-16T15:33:34;5.20;;;0.55;;
28523;SDS011;15734;50.904;6.922;2022-10-16T15:36:00;2.63;;;0.50;;
28523;SDS011;15734;50.904;6.922;2022-10-16T15:38:27;6.47;;;0.50;;
28523;SDS011;15734;50.904;6.922;2022-10-16T15:40:54;5.75;;;1.25;;
28523;SDS011;15734;50.904;6.922;2022-10-16T15:43:19;1.05;;;0.60;;
28523;SDS011;15734;50.904;6.922;2022-10-16T15:45:58;0.65;;;0.40;;
28523;SDS011;15734;50.904;6.922;2022-10-16T15:48:26;2.22;;;0.75;;
28523;SDS011;15734;50.904;6.922;2022-10-16T15:50:52;2.45;;;0.32;;
28523;SDS011;15734;50.904;6.922;2022-10-16T15:53:18;1.38;;;0.40;;
28523;SDS011;15734;50.904;6.922;2022-10-16T15:55:43;1.63;;;0.52;;
28523;SDS011;15734;50.904;6.922;2022-10-16T15:58:09;2.92;;;0.65;;
28523;SDS011;15734;50.904;6.922;2022-10-16T16:00:34;3.17;;;0.60;;
28523;SDS011;15734;50.904;6.922;2022-10-16T16:03:00;3.13;;;0.60;;
28523;SDS011;15734;50.904;6.922;2022-10-16T16:05:25;0.90;;;0.45;;
28523;SDS011;15734;50.904;6.922;2022-10-16T16:07:52;4.72;;;0.50;;
28523;SDS011;15734;50.904;6.922;2022-10-16T16:10:18;0.88;;;0.70;;
28523;SDS011;15734;50.904;6.922;2022-10-16T16:12:46;8.73;;;0.90;;
28523;SDS011;15734;50.904;6.922;2022-10-16T16:15:16;1.25;;;0.57;;
28523;SDS011;15734;50.904;6.922;2022-10-16T16:17:42;5.07;;;1.00;;
28523;SDS011;15734;50.904;6.922;2022-10-16T16:20:09;0.82;;;0.40;;
28523;SDS011;15734;50.904;6.922;2022-10-16T16:22:35;0.95;;;0.40;;
28523;SDS011;15734;50.904;6.922;2022-10-16T16:25:00;3.22;;;0.40;;